createdAt,value
2023-01-27T00:02:45.061Z,20.13
2023-01-27T00:06:37.816Z,20.45
2023-01-27T00:10:30.661Z,22.05
2023-01-27T00:14:23.658Z,22.05
2023-01-27T00:18:16.274Z,23.70
2023-01-27T00:22:28.433Z,24.90
2023-01-27T00:26:21.071Z,24.38
2023-01-27T00:30:14.329Z,23.63
2023-01-27T00:34:10.073Z,22.52
2023-01-27T00:38:02.895Z,22.25
2023-01-27T00:41:55.810Z,22.60
2023-01-27T00:45:51.476Z,19.90
2023-01-27T00:49:44.478Z,19.50
2023-01-27T00:53:37.164Z,17.67
2023-01-27T00:57:29.911Z,16.00
2023-01-27T01:01:23.082Z,13.80
2023-01-27T01:05:16.123Z,13.52
2023-01-27T01:09:14.129Z,12.88
2023-01-27T01:13:12.077Z,13.65
2023-01-27T01:17:04.637Z,13.52
2023-01-27T01:20:57.351Z,13.80
2023-01-27T01:24:49.905Z,13.52
2023-01-27T01:28:44.860Z,14.45
2023-01-27T01:32:37.723Z,15.80
2023-01-27T01:36:30.406Z,16.38
2023-01-27T01:40:25.658Z,17.42
2023-01-27T01:44:27.500Z,19.67
2023-01-27T01:48:37.345Z,20.15
2023-01-27T01:52:31.314Z,20.90
2023-01-27T01:56:28.474Z,20.42
2023-01-27T02:00:21.434Z,21.73
2023-01-27T02:04:20.839Z,21.95
2023-01-27T02:08:16.639Z,21.60
2023-01-27T02:12:09.474Z,22.35
2023-01-27T02:16:03.138Z,20.90
2023-01-27T02:20:04.096Z,21.88
2023-01-27T02:24:06.592Z,22.45
2023-01-27T02:27:59.421Z,23.13
2023-01-27T02:31:53.139Z,22.52
2023-01-27T02:35:55.868Z,22.15
2023-01-27T02:39:52.550Z,22.70
2023-01-27T02:43:45.414Z,22.05
2023-01-27T02:47:38.113Z,22.35
2023-01-27T02:51:33.041Z,21.27
2023-01-27T02:55:25.769Z,22.40
2023-01-27T02:59:18.426Z,20.83
2023-01-27T03:03:11.071Z,20.00
2023-01-27T03:07:03.852Z,21.20
2023-01-27T03:10:56.655Z,20.30
2023-01-27T03:15:09.258Z,19.88
2023-01-27T03:19:02.270Z,18.75
2023-01-27T03:22:55.037Z,19.48
2023-01-27T03:26:47.615Z,18.52
2023-01-27T03:30:41.223Z,18.40
2023-01-27T03:34:34.016Z,18.58
2023-01-27T03:38:45.847Z,17.38
2023-01-27T03:42:57.468Z,16.80
2023-01-27T03:46:50.131Z,18.45
2023-01-27T03:50:43.971Z,19.23
2023-01-27T03:54:36.801Z,18.02
2023-01-27T03:58:31.688Z,17.70
2023-01-27T04:02:42.667Z,19.05
2023-01-27T04:06:56.689Z,19.45
2023-01-27T04:11:09.740Z,17.95
2023-01-27T04:15:02.523Z,17.30
2023-01-27T04:18:56.000Z,17.27
2023-01-27T04:22:49.003Z,17.73
2023-01-27T04:26:41.851Z,17.15
2023-01-27T04:30:34.691Z,18.50
2023-01-27T04:34:28.539Z,17.10
2023-01-27T04:38:21.273Z,19.05
2023-01-27T04:42:14.377Z,18.90
2023-01-27T04:46:07.493Z,18.33
2023-01-27T04:50:00.073Z,18.60
2023-01-27T04:53:52.918Z,18.67
2023-01-27T04:57:45.509Z,17.95
2023-01-27T05:01:38.424Z,18.30
2023-01-27T05:05:31.291Z,18.73
2023-01-27T05:09:23.885Z,18.23
2023-01-27T05:13:16.695Z,17.85
2023-01-27T05:17:09.475Z,17.42
2023-01-27T05:21:03.170Z,15.43
2023-01-27T05:24:55.915Z,15.52
2023-01-27T05:28:50.323Z,14.35
2023-01-27T05:32:43.047Z,15.25
2023-01-27T05:36:35.806Z,14.23
2023-01-27T05:40:28.592Z,13.27
2023-01-27T05:44:21.319Z,14.23
2023-01-27T05:48:13.817Z,11.98
2023-01-27T05:52:06.543Z,12.85
2023-01-27T05:55:59.366Z,13.45
2023-01-27T05:59:52.099Z,12.40
2023-01-27T06:03:45.959Z,13.05
2023-01-27T06:07:38.606Z,21.50
2023-01-27T06:11:31.385Z,18.25
2023-01-27T06:15:23.888Z,14.48
2023-01-27T06:19:16.625Z,16.73
2023-01-27T06:23:11.003Z,19.30
2023-01-27T06:27:03.683Z,20.50
2023-01-27T06:31:04.366Z,13.02
2023-01-27T06:34:58.694Z,12.52
2023-01-27T06:38:51.756Z,12.52
2023-01-27T06:42:44.626Z,16.02
2023-01-27T06:46:37.474Z,16.60
2023-01-27T06:50:30.621Z,15.77
2023-01-27T06:54:23.381Z,16.27
2023-01-27T06:58:16.710Z,17.60
2023-01-27T07:02:13.342Z,15.73
2023-01-27T07:06:06.516Z,16.33
2023-01-27T07:09:59.194Z,15.20
2023-01-27T07:13:51.929Z,16.23
2023-01-27T07:17:45.137Z,16.70
2023-01-27T07:21:37.828Z,18.23
2023-01-27T07:25:31.653Z,17.55
2023-01-27T07:29:24.545Z,17.50
2023-01-27T07:33:17.401Z,17.77
2023-01-27T07:37:10.230Z,19.15
2023-01-27T07:41:07.136Z,19.73
2023-01-27T07:44:59.814Z,20.67
2023-01-27T07:48:52.816Z,20.33
2023-01-27T07:52:45.396Z,20.42
2023-01-27T07:56:38.195Z,19.40
2023-01-27T08:00:31.764Z,18.55
2023-01-27T08:04:24.265Z,20.75
2023-01-27T08:08:17.456Z,19.83
2023-01-27T08:12:10.460Z,19.65
2023-01-27T08:16:09.164Z,19.52
2023-01-27T08:20:02.356Z,18.50
2023-01-27T08:23:55.292Z,21.08
2023-01-27T08:27:52.437Z,20.48
2023-01-27T08:31:45.501Z,20.20
2023-01-27T08:35:39.433Z,21.50
2023-01-27T08:39:33.409Z,20.73
2023-01-27T08:43:25.761Z,21.02
2023-01-27T08:47:18.807Z,17.90
2023-01-27T08:51:14.090Z,16.85
2023-01-27T08:55:06.999Z,17.70
2023-01-27T08:59:00.034Z,15.25
2023-01-27T09:02:52.890Z,16.00
2023-01-27T09:06:48.530Z,16.15
2023-01-27T09:10:42.437Z,16.83
2023-01-27T09:14:35.307Z,16.25
2023-01-27T09:18:28.718Z,15.73
2023-01-27T09:22:21.838Z,15.98
2023-01-27T09:26:14.583Z,14.98
2023-01-27T09:30:08.473Z,15.70
2023-01-27T09:34:02.161Z,16.77
2023-01-27T09:37:58.071Z,16.83
2023-01-27T09:42:08.051Z,15.73
2023-01-27T09:46:37.377Z,18.10
2023-01-27T09:50:40.937Z,16.95
2023-01-27T09:54:33.406Z,17.67
2023-01-27T09:58:44.487Z,15.27
2023-01-27T10:03:18.834Z,14.73
2023-01-27T10:07:33.309Z,14.65
2023-01-27T10:11:55.377Z,14.63
2023-01-27T10:16:13.622Z,13.52
2023-01-27T10:24:21.816Z,13.65
2023-01-27T10:28:17.671Z,13.80
2023-01-27T10:32:26.978Z,12.23
2023-01-27T10:36:50.526Z,13.68
2023-01-27T10:40:46.174Z,13.00
2023-01-27T10:44:53.846Z,14.02
2023-01-27T10:48:52.447Z,14.35
2023-01-27T10:53:28.927Z,14.32
2023-01-27T10:57:35.287Z,13.15
2023-01-27T11:01:52.500Z,15.90
2023-01-27T11:05:51.406Z,14.73
2023-01-27T11:09:49.525Z,14.45
2023-01-27T11:13:42.785Z,13.43
2023-01-27T11:18:01.633Z,12.95
2023-01-27T11:22:06.734Z,12.48
2023-01-27T11:26:10.280Z,11.80
2023-01-27T11:30:11.664Z,12.05
2023-01-27T11:34:14.312Z,9.40
2023-01-27T11:38:15.881Z,9.80
2023-01-27T11:42:09.913Z,8.65
2023-01-27T11:46:06.786Z,9.13
2023-01-27T11:50:01.012Z,8.60
2023-01-27T11:54:06.948Z,9.38
2023-01-27T11:58:25.159Z,9.15
2023-01-27T12:02:43.262Z,9.32
2023-01-27T12:06:59.481Z,9.05
2023-01-27T12:10:52.498Z,8.63
2023-01-27T12:14:51.064Z,8.95
2023-01-27T12:19:27.849Z,9.55
2023-01-27T12:23:41.612Z,10.43
2023-01-27T12:27:42.969Z,9.95
2023-01-27T12:31:46.062Z,9.85
2023-01-27T12:35:39.871Z,10.88
2023-01-27T12:39:57.517Z,11.30
2023-01-27T12:44:00.402Z,10.80
2023-01-27T12:48:02.199Z,10.48
2023-01-27T12:51:55.782Z,11.27
2023-01-27T12:56:22.799Z,11.45
2023-01-27T13:00:16.368Z,10.25
2023-01-27T13:04:09.291Z,10.60
2023-01-27T13:08:02.326Z,11.00
2023-01-27T13:11:58.163Z,11.18
2023-01-27T13:15:59.508Z,10.10
2023-01-27T13:19:55.270Z,11.15
2023-01-27T13:23:49.575Z,10.43
2023-01-27T13:27:42.313Z,10.20
2023-01-27T13:31:37.910Z,11.52
2023-01-27T13:35:56.303Z,10.05
2023-01-27T13:40:13.580Z,10.45
2023-01-27T13:44:30.043Z,10.75
2023-01-27T13:48:44.388Z,11.90
2023-01-27T13:52:38.378Z,11.40
2023-01-27T13:56:43.491Z,10.07
2023-01-27T14:00:41.556Z,11.43
2023-01-27T14:05:11.970Z,11.93
2023-01-27T14:09:14.715Z,12.27
2023-01-27T14:13:07.347Z,11.95
2023-01-27T14:16:59.905Z,12.73
2023-01-27T14:21:14.666Z,13.73
2023-01-27T14:25:16.854Z,13.02
2023-01-27T14:29:24.874Z,11.63
2023-01-27T14:33:32.696Z,14.25
2023-01-27T14:37:44.179Z,13.35
2023-01-27T14:41:49.708Z,13.55
2023-01-27T14:46:02.274Z,13.02
2023-01-27T14:50:03.748Z,11.70
2023-01-27T14:54:30.810Z,11.57
2023-01-27T14:59:01.039Z,11.88
2023-01-27T15:03:04.378Z,11.85
2023-01-27T15:07:04.625Z,15.43
2023-01-27T15:11:19.161Z,13.70
2023-01-27T15:15:30.391Z,14.23
2023-01-27T15:19:51.211Z,19.27
2023-01-27T15:23:59.175Z,31.85
2023-01-27T15:32:17.336Z,15.65
2023-01-27T15:36:32.752Z,14.63
2023-01-27T15:40:27.126Z,12.50
2023-01-27T15:44:25.843Z,13.57
2023-01-27T15:48:22.491Z,13.38
2023-01-27T15:52:33.094Z,14.48
2023-01-27T15:56:53.323Z,14.63
2023-01-27T16:00:55.095Z,16.95
2023-01-27T16:05:22.032Z,14.45
2023-01-27T16:09:30.097Z,15.45
2023-01-27T16:13:23.557Z,14.25
2023-01-27T16:17:22.497Z,16.40
2023-01-27T16:21:47.894Z,15.68
2023-01-27T16:25:46.404Z,16.83
2023-01-27T16:29:40.679Z,15.10
2023-01-27T16:33:46.004Z,18.25
2023-01-27T16:37:49.659Z,17.63
2023-01-27T16:41:53.735Z,20.75
2023-01-27T16:45:54.325Z,22.52
2023-01-27T16:49:50.480Z,19.48
2023-01-27T16:53:52.624Z,20.23
2023-01-27T16:57:46.130Z,19.65
2023-01-27T17:01:49.742Z,20.55
2023-01-27T17:05:43.630Z,20.65
2023-01-27T17:09:54.593Z,16.92
2023-01-27T17:13:51.858Z,18.08
2023-01-27T17:17:46.987Z,18.88
2023-01-27T17:21:44.555Z,18.13
2023-01-27T17:29:43.022Z,16.83
2023-01-27T17:33:37.780Z,18.55
2023-01-27T17:37:31.653Z,19.73
2023-01-27T17:41:28.049Z,18.65
2023-01-27T17:45:27.571Z,18.67
2023-01-27T17:49:20.572Z,27.02
2023-01-27T17:53:14.108Z,26.77
2023-01-27T17:57:34.840Z,23.45
2023-01-27T18:01:29.234Z,26.60
2023-01-27T18:05:26.807Z,26.15
2023-01-27T18:09:25.822Z,24.08
2023-01-27T18:13:19.334Z,21.88
2023-01-27T18:17:23.867Z,21.77
2023-01-27T18:21:24.280Z,23.40
2023-01-27T18:25:17.832Z,23.92
2023-01-27T18:29:28.144Z,21.40
2023-01-27T18:33:22.201Z,23.17
2023-01-27T18:37:33.324Z,20.98
2023-01-27T18:41:32.420Z,22.10
2023-01-27T18:45:27.837Z,22.60
2023-01-27T18:49:21.701Z,21.70
2023-01-27T18:53:18.237Z,20.38
2023-01-27T18:57:12.354Z,18.53
2023-01-27T19:01:24.332Z,18.80
2023-01-27T19:05:26.013Z,17.30
2023-01-27T19:09:20.879Z,18.05
2023-01-27T19:13:17.421Z,16.10
2023-01-27T19:17:23.735Z,19.17
2023-01-27T19:21:17.798Z,20.60
2023-01-27T19:25:14.028Z,18.02
2023-01-27T19:29:10.984Z,18.85
2023-01-27T19:33:16.468Z,22.48
2023-01-27T19:37:18.808Z,19.52
2023-01-27T19:41:12.671Z,18.75
2023-01-27T19:45:06.464Z,18.52
2023-01-27T19:48:59.947Z,19.98
2023-01-27T19:52:53.745Z,19.58
2023-01-27T19:56:47.784Z,18.55
2023-01-27T20:00:42.167Z,16.27
2023-01-27T20:04:36.545Z,15.40
2023-01-27T20:08:33.012Z,14.63
2023-01-27T20:12:26.567Z,17.43
2023-01-27T20:16:22.785Z,16.63
2023-01-27T20:20:17.162Z,16.40
2023-01-27T20:24:18.676Z,17.98
2023-01-27T20:28:16.356Z,18.08
2023-01-27T20:32:11.334Z,18.70
2023-01-27T20:36:09.702Z,17.20
2023-01-27T20:40:04.567Z,15.43
2023-01-27T20:44:03.355Z,17.35
2023-01-27T20:47:59.083Z,18.83
2023-01-27T20:51:53.189Z,19.30
2023-01-27T20:55:47.128Z,18.45
2023-01-27T20:59:46.046Z,18.63
2023-01-27T21:03:41.397Z,18.95
2023-01-27T21:07:38.240Z,19.80
2023-01-27T21:11:36.011Z,19.95
2023-01-27T21:15:29.806Z,19.85
2023-01-27T21:19:24.347Z,19.50
2023-01-27T21:23:21.568Z,21.42
2023-01-27T21:27:14.913Z,20.23
2023-01-27T21:31:11.114Z,21.35
2023-01-27T21:35:04.791Z,22.42
2023-01-27T21:38:57.949Z,19.88
2023-01-27T21:43:11.225Z,20.38
2023-01-27T21:47:06.643Z,19.95
2023-01-27T21:50:59.832Z,18.30
2023-01-27T21:54:52.680Z,19.08
2023-01-27T21:58:45.759Z,16.95
2023-01-27T22:02:38.789Z,18.17
2023-01-27T22:06:32.144Z,18.80
2023-01-27T22:10:29.863Z,18.35
2023-01-27T22:14:23.093Z,18.45
2023-01-27T22:18:16.086Z,18.90
2023-01-27T22:22:12.285Z,17.52
2023-01-27T22:26:09.289Z,17.98
2023-01-27T22:30:02.000Z,18.17
2023-01-27T22:33:54.850Z,17.60
2023-01-27T22:37:49.237Z,19.10
2023-01-27T22:41:42.313Z,18.15
2023-01-27T22:45:37.753Z,18.92
2023-01-27T22:49:30.473Z,18.63
2023-01-27T22:53:24.036Z,19.23
2023-01-27T22:57:16.612Z,19.60
2023-01-27T23:01:10.711Z,18.83
2023-01-27T23:05:05.482Z,20.48
2023-01-27T23:08:58.070Z,19.02
2023-01-27T23:12:50.848Z,19.35
2023-01-27T23:16:43.238Z,21.13
2023-01-27T23:20:38.634Z,20.10
2023-01-27T23:24:31.206Z,19.88
2023-01-27T23:28:23.962Z,20.38
2023-01-27T23:32:16.625Z,22.13
2023-01-27T23:36:10.828Z,23.35
2023-01-27T23:40:03.717Z,24.75
2023-01-27T23:43:56.922Z,28.95
2023-01-27T23:47:49.868Z,29.00
2023-01-27T23:51:42.778Z,28.20
2023-01-27T23:55:35.383Z,26.83
2023-01-27T23:59:28.056Z,28.52
